sensor_id;sensor_type;location;lat;lon;timestamp;pressure;altitude;pressure_sealevel;temperature;humidity
10176;BME280;18221;38.704;0.152;2023-02-13T00:02:36;100619.38;;;12.99;45.76
10176;BME280;18221;38.704;0.152;2023-02-13T00:05:05;100627.09;;;12.80;45.91
10176;BME280;18221;38.704;0.152;2023-02-13T00:07:33;100624.75;;;12.75;46.10
10176;BME280;18221;38.704;0.152;2023-02-13T00:10:01;100634.09;;;12.81;45.98
10176;BME280;18221;38.704;0.152;2023-02-13T00:12:30;100628.38;;;12.74;46.23
10176;BME280;18221;38.704;0.152;2023-02-13T00:14:58;100620.03;;;12.79;46.14
10176;BME280;18221;38.704;0.152;2023-02-13T00:17:27;100630.19;;;12.74;46.25
10176;BME280;18221;38.704;0.152;2023-02-13T00:19:56;100634.53;;;12.75;46.59
10176;BME280;18221;38.704;0.152;2023-02-13T00:22:25;100632.59;;;12.66;46.63
10176;BME280;18221;38.704;0.152;2023-02-13T00:24:53;100633.31;;;12.68;46.85
10176;BME280;18221;38.704;0.152;2023-02-13T00:27:21;100628.72;;;12.70;46.55
10176;BME280;18221;38.704;0.152;2023-02-13T00:29:49;100629.56;;;12.70;47.12
10176;BME280;18221;38.704;0.152;2023-02-13T00:32:18;100631.16;;;12.73;47.08
10176;BME280;18221;38.704;0.152;2023-02-13T00:34:46;100628.72;;;12.70;46.91
10176;BME280;18221;38.704;0.152;2023-02-13T00:37:16;100626.81;;;12.72;47.33
10176;BME280;18221;38.704;0.152;2023-02-13T00:39:44;100622.31;;;12.72;46.78
10176;BME280;18221;38.704;0.152;2023-02-13T00:42:12;100621.69;;;12.69;47.14
10176;BME280;18221;38.704;0.152;2023-02-13T00:44:40;100610.47;;;12.76;46.92
10176;BME280;18221;38.704;0.152;2023-02-13T00:47:09;100616.16;;;12.72;47.28
10176;BME280;18221;38.704;0.152;2023-02-13T00:49:40;100613.00;;;12.78;46.97
10176;BME280;18221;38.704;0.152;2023-02-13T00:52:08;100611.91;;;12.80;46.99
10176;BME280;18221;38.704;0.152;2023-02-13T00:54:38;100603.41;;;12.75;46.90
10176;BME280;18221;38.704;0.152;2023-02-13T00:57:06;100608.44;;;12.91;46.51
10176;BME280;18221;38.704;0.152;2023-02-13T00:59:34;100611.88;;;12.93;46.46
10176;BME280;18221;38.704;0.152;2023-02-13T01:02:02;100611.16;;;13.02;46.07
10176;BME280;18221;38.704;0.152;2023-02-13T01:04:30;100609.22;;;13.04;45.73
10176;BME280;18221;38.704;0.152;2023-02-13T01:06:59;100597.47;;;12.95;45.95
10176;BME280;18221;38.704;0.152;2023-02-13T01:09:27;100608.53;;;12.78;46.58
10176;BME280;18221;38.704;0.152;2023-02-13T01:11:57;100603.25;;;12.66;46.56
10176;BME280;18221;38.704;0.152;2023-02-13T01:14:26;100600.44;;;12.80;46.78
10176;BME280;18221;38.704;0.152;2023-02-13T01:16:54;100602.09;;;12.81;46.29
10176;BME280;18221;38.704;0.152;2023-02-13T01:19:22;100596.50;;;12.73;46.62
10176;BME280;18221;38.704;0.152;2023-02-13T01:21:51;100590.72;;;12.79;46.56
10176;BME280;18221;38.704;0.152;2023-02-13T01:24:20;100590.59;;;12.57;47.02
10176;BME280;18221;38.704;0.152;2023-02-13T01:26:48;100587.56;;;12.74;46.54
10176;BME280;18221;38.704;0.152;2023-02-13T01:29:17;100589.03;;;12.54;46.64
10176;BME280;18221;38.704;0.152;2023-02-13T01:31:46;100590.06;;;12.64;46.44
10176;BME280;18221;38.704;0.152;2023-02-13T01:34:14;100584.25;;;12.70;46.49
10176;BME280;18221;38.704;0.152;2023-02-13T01:36:42;100587.72;;;12.60;46.62
10176;BME280;18221;38.704;0.152;2023-02-13T01:39:11;100587.50;;;12.63;46.75
10176;BME280;18221;38.704;0.152;2023-02-13T01:41:40;100597.44;;;12.61;46.51
10176;BME280;18221;38.704;0.152;2023-02-13T01:44:46;100592.88;;;12.74;46.48
10176;BME280;18221;38.704;0.152;2023-02-13T01:47:25;100598.00;;;12.77;46.10
10176;BME280;18221;38.704;0.152;2023-02-13T01:50:04;100601.50;;;12.77;46.20
10176;BME280;18221;38.704;0.152;2023-02-13T01:52:38;100598.00;;;12.77;46.10
10176;BME280;18221;38.704;0.152;2023-02-13T01:55:09;100601.50;;;12.77;46.20
10176;BME280;18221;38.704;0.152;2023-02-13T01:57:40;100591.34;;;12.82;46.05
10176;BME280;18221;38.704;0.152;2023-02-13T02:00:14;100594.84;;;12.83;45.91
10176;BME280;18221;38.704;0.152;2023-02-13T02:02:48;100593.34;;;12.68;46.43
10176;BME280;18221;38.704;0.152;2023-02-13T02:05:19;100584.88;;;12.74;46.13
10176;BME280;18221;38.704;0.152;2023-02-13T02:07:49;100588.91;;;12.79;46.20
10176;BME280;18221;38.704;0.152;2023-02-13T02:10:19;100586.34;;;12.78;46.31
10176;BME280;18221;38.704;0.152;2023-02-13T02:12:57;100581.63;;;12.81;46.21
10176;BME280;18221;38.704;0.152;2023-02-13T02:15:29;100575.59;;;12.79;46.29
10176;BME280;18221;38.704;0.152;2023-02-13T02:17:57;100577.31;;;12.91;46.06
10176;BME280;18221;38.704;0.152;2023-02-13T02:20:48;100571.13;;;12.91;46.07
10176;BME280;18221;38.704;0.152;2023-02-13T02:24:19;100570.16;;;12.92;46.28
10176;BME280;18221;38.704;0.152;2023-02-13T02:27:18;100562.06;;;12.70;46.42
10176;BME280;18221;38.704;0.152;2023-02-13T02:30:41;100553.84;;;12.73;46.55
10176;BME280;18221;38.704;0.152;2023-02-13T02:33:27;100563.44;;;12.41;47.19
10176;BME280;18221;38.704;0.152;2023-02-13T02:36:13;100561.06;;;12.49;47.27
10176;BME280;18221;38.704;0.152;2023-02-13T02:39:01;100560.69;;;12.88;46.58
10176;BME280;18221;38.704;0.152;2023-02-13T02:41:45;100563.34;;;12.88;46.41
10176;BME280;18221;38.704;0.152;2023-02-13T02:44:40;100569.16;;;12.82;46.64
10176;BME280;18221;38.704;0.152;2023-02-13T02:47:22;100573.78;;;12.91;46.42
10176;BME280;18221;38.704;0.152;2023-02-13T02:50:25;100568.34;;;13.03;46.23
10176;BME280;18221;38.704;0.152;2023-02-13T02:53:21;100567.50;;;12.92;45.93
10176;BME280;18221;38.704;0.152;2023-02-13T02:55:57;100573.78;;;12.80;46.27
10176;BME280;18221;38.704;0.152;2023-02-13T02:58:35;100567.38;;;12.93;46.30
10176;BME280;18221;38.704;0.152;2023-02-13T03:01:26;100565.00;;;12.78;46.47
10176;BME280;18221;38.704;0.152;2023-02-13T03:04:18;100563.72;;;12.83;46.51
10176;BME280;18221;38.704;0.152;2023-02-13T03:07:09;100567.81;;;12.76;46.47
10176;BME280;18221;38.704;0.152;2023-02-13T03:09:44;100572.28;;;12.76;46.77
10176;BME280;18221;38.704;0.152;2023-02-13T03:12:39;100570.03;;;12.82;46.67
10176;BME280;18221;38.704;0.152;2023-02-13T03:15:39;100566.28;;;12.85;46.71
10176;BME280;18221;38.704;0.152;2023-02-13T03:18:22;100574.78;;;12.90;46.33
10176;BME280;18221;38.704;0.152;2023-02-13T03:21:15;100566.00;;;12.77;46.61
10176;BME280;18221;38.704;0.152;2023-02-13T03:24:24;100569.53;;;12.88;46.39
10176;BME280;18221;38.704;0.152;2023-02-13T03:27:03;100566.72;;;12.79;46.74
10176;BME280;18221;38.704;0.152;2023-02-13T03:29:43;100574.00;;;12.77;46.62
10176;BME280;18221;38.704;0.152;2023-02-13T03:32:40;100573.38;;;12.73;46.43
10176;BME280;18221;38.704;0.152;2023-02-13T03:35:34;100575.44;;;12.81;46.26
10176;BME280;18221;38.704;0.152;2023-02-13T03:38:28;100575.69;;;12.78;46.42
10176;BME280;18221;38.704;0.152;2023-02-13T03:41:06;100568.91;;;12.74;46.38
10176;BME280;18221;38.704;0.152;2023-02-13T03:44:00;100571.72;;;12.60;46.52
10176;BME280;18221;38.704;0.152;2023-02-13T03:46:34;100580.00;;;12.68;46.86
10176;BME280;18221;38.704;0.152;2023-02-13T03:49:06;100579.72;;;12.60;46.93
10176;BME280;18221;38.704;0.152;2023-02-13T03:52:01;100580.13;;;12.66;46.43
10176;BME280;18221;38.704;0.152;2023-02-13T03:54:39;100578.56;;;12.75;46.71
10176;BME280;18221;38.704;0.152;2023-02-13T03:57:30;100577.63;;;12.76;46.83
10176;BME280;18221;38.704;0.152;2023-02-13T04:00:17;100583.91;;;12.75;46.55
10176;BME280;18221;38.704;0.152;2023-02-13T04:02:57;100587.56;;;12.74;46.81
10176;BME280;18221;38.704;0.152;2023-02-13T04:05:31;100583.97;;;12.62;47.24
10176;BME280;18221;38.704;0.152;2023-02-13T04:08:04;100588.84;;;12.68;47.25
10176;BME280;18221;38.704;0.152;2023-02-13T04:10:36;100589.94;;;12.66;47.47
10176;BME280;18221;38.704;0.152;2023-02-13T04:13:17;100591.06;;;12.74;47.60
10176;BME280;18221;38.704;0.152;2023-02-13T04:15:52;100586.69;;;12.73;47.70
10176;BME280;18221;38.704;0.152;2023-02-13T04:18:26;100582.22;;;12.74;47.88
10176;BME280;18221;38.704;0.152;2023-02-13T04:20:55;100594.31;;;12.67;47.90
10176;BME280;18221;38.704;0.152;2023-02-13T04:23:24;100596.56;;;12.60;48.60
10176;BME280;18221;38.704;0.152;2023-02-13T04:25:55;100606.28;;;12.61;48.90
10176;BME280;18221;38.704;0.152;2023-02-13T04:28:25;100606.94;;;12.52;49.24
10176;BME280;18221;38.704;0.152;2023-02-13T04:30:53;100607.00;;;12.63;49.33
10176;BME280;18221;38.704;0.152;2023-02-13T04:33:23;100612.47;;;12.62;49.61
10176;BME280;18221;38.704;0.152;2023-02-13T04:35:51;100610.97;;;12.58;49.74
10176;BME280;18221;38.704;0.152;2023-02-13T04:38:19;100611.75;;;12.71;50.01
10176;BME280;18221;38.704;0.152;2023-02-13T04:40:47;100605.47;;;12.72;49.94
10176;BME280;18221;38.704;0.152;2023-02-13T04:43:15;100609.44;;;12.66;50.05
10176;BME280;18221;38.704;0.152;2023-02-13T04:45:47;100610.84;;;12.83;50.03
10176;BME280;18221;38.704;0.152;2023-02-13T04:48:16;100607.28;;;12.71;50.57
10176;BME280;18221;38.704;0.152;2023-02-13T04:50:44;100610.53;;;12.64;50.71
10176;BME280;18221;38.704;0.152;2023-02-13T04:53:13;100599.06;;;12.74;50.84
10176;BME280;18221;38.704;0.152;2023-02-13T04:55:41;100601.84;;;12.73;51.11
10176;BME280;18221;38.704;0.152;2023-02-13T04:58:10;100610.03;;;12.59;51.45
10176;BME280;18221;38.704;0.152;2023-02-13T05:00:38;100608.31;;;12.58;51.51
10176;BME280;18221;38.704;0.152;2023-02-13T05:03:11;100616.81;;;12.63;51.72
10176;BME280;18221;38.704;0.152;2023-02-13T05:05:39;100616.00;;;12.73;51.50
10176;BME280;18221;38.704;0.152;2023-02-13T05:08:09;100625.81;;;12.73;51.37
10176;BME280;18221;38.704;0.152;2023-02-13T05:10:37;100622.19;;;12.74;51.30
10176;BME280;18221;38.704;0.152;2023-02-13T05:13:06;100623.28;;;12.71;51.43
10176;BME280;18221;38.704;0.152;2023-02-13T05:15:34;100612.72;;;12.70;51.44
10176;BME280;18221;38.704;0.152;2023-02-13T05:18:02;100619.25;;;12.66;51.74
10176;BME280;18221;38.704;0.152;2023-02-13T05:20:32;100623.13;;;12.62;51.81
10176;BME280;18221;38.704;0.152;2023-02-13T05:23:00;100623.84;;;12.64;51.76
10176;BME280;18221;38.704;0.152;2023-02-13T05:25:46;100622.56;;;12.69;51.57
10176;BME280;18221;38.704;0.152;2023-02-13T05:28:15;100627.31;;;12.77;51.69
10176;BME280;18221;38.704;0.152;2023-02-13T05:31:00;100626.84;;;12.83;51.68
10176;BME280;18221;38.704;0.152;2023-02-13T05:33:28;100621.91;;;12.89;51.27
10176;BME280;18221;38.704;0.152;2023-02-13T05:35:58;100624.06;;;12.84;51.35
10176;BME280;18221;38.704;0.152;2023-02-13T05:38:26;100629.63;;;12.81;51.30
10176;BME280;18221;38.704;0.152;2023-02-13T05:40:54;100633.38;;;12.79;51.43
10176;BME280;18221;38.704;0.152;2023-02-13T05:43:25;100631.09;;;12.85;51.51
10176;BME280;18221;38.704;0.152;2023-02-13T05:46:02;100639.56;;;12.79;51.69
10176;BME280;18221;38.704;0.152;2023-02-13T05:48:30;100639.84;;;12.87;51.50
10176;BME280;18221;38.704;0.152;2023-02-13T05:51:00;100634.59;;;12.86;51.48
10176;BME280;18221;38.704;0.152;2023-02-13T05:53:28;100640.06;;;12.84;51.54
10176;BME280;18221;38.704;0.152;2023-02-13T05:56:00;100636.03;;;12.79;51.76
10176;BME280;18221;38.704;0.152;2023-02-13T05:58:29;100642.44;;;12.76;51.50
10176;BME280;18221;38.704;0.152;2023-02-13T06:00:58;100653.84;;;12.78;51.65
10176;BME280;18221;38.704;0.152;2023-02-13T06:03:28;100650.94;;;12.81;51.69
10176;BME280;18221;38.704;0.152;2023-02-13T06:05:57;100646.69;;;12.79;51.51
10176;BME280;18221;38.704;0.152;2023-02-13T06:08:27;100658.28;;;12.90;51.16
10176;BME280;18221;38.704;0.152;2023-02-13T06:10:56;100657.53;;;12.88;51.17
10176;BME280;18221;38.704;0.152;2023-02-13T06:13:24;100650.28;;;12.90;51.17
10176;BME280;18221;38.704;0.152;2023-02-13T06:15:53;100656.66;;;12.88;50.99
10176;BME280;18221;38.704;0.152;2023-02-13T06:18:21;100656.66;;;12.88;51.03
10176;BME280;18221;38.704;0.152;2023-02-13T06:20:50;100664.91;;;12.85;50.96
10176;BME280;18221;38.704;0.152;2023-02-13T06:23:18;100660.59;;;12.71;51.09
10176;BME280;18221;38.704;0.152;2023-02-13T06:25:47;100662.56;;;12.57;51.43
10176;BME280;18221;38.704;0.152;2023-02-13T06:28:16;100662.03;;;12.52;51.40
10176;BME280;18221;38.704;0.152;2023-02-13T06:30:44;100661.72;;;12.56;51.77
10176;BME280;18221;38.704;0.152;2023-02-13T06:33:12;100660.16;;;12.54;51.77
10176;BME280;18221;38.704;0.152;2023-02-13T06:35:41;100669.81;;;12.55;51.38
10176;BME280;18221;38.704;0.152;2023-02-13T06:38:09;100670.94;;;12.39;51.62
10176;BME280;18221;38.704;0.152;2023-02-13T06:40:37;100675.84;;;12.46;52.15
10176;BME280;18221;38.704;0.152;2023-02-13T06:43:07;100672.34;;;12.32;52.09
10176;BME280;18221;38.704;0.152;2023-02-13T06:45:36;100676.69;;;12.46;52.17
10176;BME280;18221;38.704;0.152;2023-02-13T06:48:05;100686.16;;;12.50;52.10
10176;BME280;18221;38.704;0.152;2023-02-13T06:50:33;100681.00;;;12.60;52.17
10176;BME280;18221;38.704;0.152;2023-02-13T06:53:01;100683.78;;;12.58;51.59
10176;BME280;18221;38.704;0.152;2023-02-13T06:55:30;100683.88;;;12.57;51.93
10176;BME280;18221;38.704;0.152;2023-02-13T06:57:58;100689.22;;;12.57;51.79
10176;BME280;18221;38.704;0.152;2023-02-13T07:00:28;100686.78;;;12.54;52.10
10176;BME280;18221;38.704;0.152;2023-02-13T07:03:02;100688.78;;;12.63;51.82
10176;BME280;18221;38.704;0.152;2023-02-13T07:05:31;100691.56;;;12.61;51.74
10176;BME280;18221;38.704;0.152;2023-02-13T07:07:59;100692.22;;;12.52;51.63
10176;BME280;18221;38.704;0.152;2023-02-13T07:10:27;100700.84;;;12.56;51.83
10176;BME280;18221;38.704;0.152;2023-02-13T07:12:56;100702.31;;;12.60;51.62
10176;BME280;18221;38.704;0.152;2023-02-13T07:15:24;100705.28;;;12.68;51.53
10176;BME280;18221;38.704;0.152;2023-02-13T07:17:57;100708.16;;;12.65;51.40
10176;BME280;18221;38.704;0.152;2023-02-13T07:20:27;100711.25;;;12.71;51.37
10176;BME280;18221;38.704;0.152;2023-02-13T07:22:57;100708.53;;;12.84;51.05
10176;BME280;18221;38.704;0.152;2023-02-13T07:25:27;100709.72;;;12.80;51.03
10176;BME280;18221;38.704;0.152;2023-02-13T07:28:01;100712.31;;;12.69;51.19
10176;BME280;18221;38.704;0.152;2023-02-13T07:30:32;100718.50;;;12.69;51.11
10176;BME280;18221;38.704;0.152;2023-02-13T07:33:04;100719.84;;;12.75;51.16
10176;BME280;18221;38.704;0.152;2023-02-13T07:35:32;100722.88;;;12.94;50.87
10176;BME280;18221;38.704;0.152;2023-02-13T07:38:01;100727.69;;;12.89;50.49
10176;BME280;18221;38.704;0.152;2023-02-13T07:40:29;100724.53;;;12.84;50.87
10176;BME280;18221;38.704;0.152;2023-02-13T07:43:00;100728.25;;;12.81;51.01
10176;BME280;18221;38.704;0.152;2023-02-13T07:45:29;100730.16;;;12.92;50.46
10176;BME280;18221;38.704;0.152;2023-02-13T07:47:57;100730.88;;;12.94;50.47
10176;BME280;18221;38.704;0.152;2023-02-13T07:50:28;100731.31;;;12.88;50.69
10176;BME280;18221;38.704;0.152;2023-02-13T07:52:57;100733.47;;;12.83;50.97
10176;BME280;18221;38.704;0.152;2023-02-13T07:55:26;100738.81;;;12.83;50.94
10176;BME280;18221;38.704;0.152;2023-02-13T07:57:56;100739.44;;;12.86;51.05
10176;BME280;18221;38.704;0.152;2023-02-13T08:00:24;100746.63;;;13.10;50.48
10176;BME280;18221;38.704;0.152;2023-02-13T08:02:53;100751.53;;;13.03;50.70
10176;BME280;18221;38.704;0.152;2023-02-13T08:05:21;100750.47;;;13.06;50.53
10176;BME280;18221;38.704;0.152;2023-02-13T08:07:52;100748.50;;;13.20;50.40
10176;BME280;18221;38.704;0.152;2023-02-13T08:10:20;100753.09;;;13.18;50.28
10176;BME280;18221;38.704;0.152;2023-02-13T08:13:07;100749.34;;;13.21;50.37
10176;BME280;18221;38.704;0.152;2023-02-13T08:15:37;100755.06;;;13.27;50.10
10176;BME280;18221;38.704;0.152;2023-02-13T08:18:05;100760.53;;;13.26;50.22
10176;BME280;18221;38.704;0.152;2023-02-13T08:20:34;100759.63;;;13.14;50.29
10176;BME280;18221;38.704;0.152;2023-02-13T08:23:08;100759.09;;;13.09;50.29
10176;BME280;18221;38.704;0.152;2023-02-13T08:25:38;100765.19;;;13.11;50.50
10176;BME280;18221;38.704;0.152;2023-02-13T08:28:07;100769.13;;;13.06;50.67
10176;BME280;18221;38.704;0.152;2023-02-13T08:30:35;100761.75;;;13.22;50.30
10176;BME280;18221;38.704;0.152;2023-02-13T08:33:03;100768.13;;;13.19;50.28
10176;BME280;18221;38.704;0.152;2023-02-13T08:35:33;100770.50;;;13.35;50.23
10176;BME280;18221;38.704;0.152;2023-02-13T08:38:04;100775.25;;;13.31;50.14
10176;BME280;18221;38.704;0.152;2023-02-13T08:40:33;100772.44;;;13.33;50.32
10176;BME280;18221;38.704;0.152;2023-02-13T08:43:03;100778.69;;;13.44;49.99
10176;BME280;18221;38.704;0.152;2023-02-13T08:45:34;100774.78;;;13.37;49.87
10176;BME280;18221;38.704;0.152;2023-02-13T08:48:03;100766.03;;;13.35;50.13
10176;BME280;18221;38.704;0.152;2023-02-13T08:50:33;100774.44;;;13.42;49.93
10176;BME280;18221;38.704;0.152;2023-02-13T08:53:02;100780.94;;;13.61;49.64
10176;BME280;18221;38.704;0.152;2023-02-13T08:55:31;100770.06;;;13.76;49.37
10176;BME280;18221;38.704;0.152;2023-02-13T08:58:00;100767.13;;;13.68;49.25
10176;BME280;18221;38.704;0.152;2023-02-13T09:00:29;100769.78;;;13.68;49.70
10176;BME280;18221;38.704;0.152;2023-02-13T09:03:00;100773.31;;;13.68;49.28
10176;BME280;18221;38.704;0.152;2023-02-13T09:05:30;100766.56;;;13.86;49.05
10176;BME280;18221;38.704;0.152;2023-02-13T09:08:00;100766.56;;;13.86;48.93
10176;BME280;18221;38.704;0.152;2023-02-13T09:10:32;100762.09;;;13.98;48.99
10176;BME280;18221;38.704;0.152;2023-02-13T09:13:00;100765.25;;;14.03;48.62
10176;BME280;18221;38.704;0.152;2023-02-13T09:15:29;100770.31;;;13.84;49.22
10176;BME280;18221;38.704;0.152;2023-02-13T09:17:57;100777.63;;;13.82;49.14
10176;BME280;18221;38.704;0.152;2023-02-13T09:20:26;100772.16;;;13.94;49.08
10176;BME280;18221;38.704;0.152;2023-02-13T09:22:55;100761.50;;;13.94;48.97
10176;BME280;18221;38.704;0.152;2023-02-13T09:25:23;100766.34;;;14.00;48.81
10176;BME280;18221;38.704;0.152;2023-02-13T09:27:53;100771.81;;;13.99;48.95
10176;BME280;18221;38.704;0.152;2023-02-13T09:30:22;100769.75;;;14.02;49.16
10176;BME280;18221;38.704;0.152;2023-02-13T09:32:51;100764.66;;;13.99;49.14
10176;BME280;18221;38.704;0.152;2023-02-13T09:35:21;100768.66;;;14.05;49.23
10176;BME280;18221;38.704;0.152;2023-02-13T09:37:49;100768.56;;;14.17;49.03
10176;BME280;18221;38.704;0.152;2023-02-13T09:40:25;100769.16;;;14.10;48.90
10176;BME280;18221;38.704;0.152;2023-02-13T09:43:05;100768.19;;;14.00;48.92
10176;BME280;18221;38.704;0.152;2023-02-13T09:45:35;100761.25;;;14.08;48.91
10176;BME280;18221;38.704;0.152;2023-02-13T09:48:05;100764.53;;;14.01;49.26
10176;BME280;18221;38.704;0.152;2023-02-13T09:50:38;100761.75;;;14.02;49.09
10176;BME280;18221;38.704;0.152;2023-02-13T09:53:08;100762.22;;;14.18;49.03
10176;BME280;18221;38.704;0.152;2023-02-13T09:55:46;100768.00;;;14.36;48.57
10176;BME280;18221;38.704;0.152;2023-02-13T09:58:42;100769.09;;;14.34;48.33
10176;BME280;18221;38.704;0.152;2023-02-13T10:01:27;100768.50;;;14.41;48.23
10176;BME280;18221;38.704;0.152;2023-02-13T10:04:28;100773.94;;;14.51;47.97
10176;BME280;18221;38.704;0.152;2023-02-13T10:07:16;100777.09;;;14.45;48.14
10176;BME280;18221;38.704;0.152;2023-02-13T10:10:00;100777.84;;;14.36;48.84
10176;BME280;18221;38.704;0.152;2023-02-13T10:12:58;100785.22;;;14.65;48.29
10176;BME280;18221;38.704;0.152;2023-02-13T10:15:38;100785.59;;;14.61;48.11
10176;BME280;18221;38.704;0.152;2023-02-13T10:18:14;100790.19;;;14.81;47.53
10176;BME280;18221;38.704;0.152;2023-02-13T10:20:47;100789.38;;;14.80;47.20
10176;BME280;18221;38.704;0.152;2023-02-13T10:23:24;100789.03;;;15.17;46.79
10176;BME280;18221;38.704;0.152;2023-02-13T10:25:59;100792.63;;;15.38;46.39
10176;BME280;18221;38.704;0.152;2023-02-13T10:28:37;100787.59;;;15.56;45.87
10176;BME280;18221;38.704;0.152;2023-02-13T10:31:12;100798.44;;;15.75;45.49
10176;BME280;18221;38.704;0.152;2023-02-13T10:33:48;100802.06;;;15.64;44.80
10176;BME280;18221;38.704;0.152;2023-02-13T10:36:20;100798.59;;;15.30;45.77
10176;BME280;18221;38.704;0.152;2023-02-13T10:39:20;100798.94;;;15.48;45.95
10176;BME280;18221;38.704;0.152;2023-02-13T10:41:53;100797.38;;;15.34;45.84
10176;BME280;18221;38.704;0.152;2023-02-13T10:44:48;100795.16;;;15.39;45.81
10176;BME280;18221;38.704;0.152;2023-02-13T10:47:40;100800.06;;;15.34;46.05
10176;BME280;18221;38.704;0.152;2023-02-13T10:50:22;100794.25;;;15.18;46.29
10176;BME280;18221;38.704;0.152;2023-02-13T10:53:10;100802.31;;;15.07;46.77
10176;BME280;18221;38.704;0.152;2023-02-13T10:56:07;100805.34;;;15.14;46.61
10176;BME280;18221;38.704;0.152;2023-02-13T10:58:53;100806.59;;;14.99;46.86
10176;BME280;18221;38.704;0.152;2023-02-13T11:01:31;100797.31;;;15.14;46.76
10176;BME280;18221;38.704;0.152;2023-02-13T11:04:09;100799.69;;;15.28;46.82
10176;BME280;18221;38.704;0.152;2023-02-13T11:06:53;100807.25;;;15.23;46.68
10176;BME280;18221;38.704;0.152;2023-02-13T11:09:22;100806.63;;;15.30;46.54
10176;BME280;18221;38.704;0.152;2023-02-13T11:11:52;100796.81;;;15.20;46.53
10176;BME280;18221;38.704;0.152;2023-02-13T11:14:23;100800.72;;;15.16;46.42
10176;BME280;18221;38.704;0.152;2023-02-13T11:16:56;100791.63;;;15.39;46.49
10176;BME280;18221;38.704;0.152;2023-02-13T11:19:32;100785.19;;;15.41;46.62
10176;BME280;18221;38.704;0.152;2023-02-13T11:22:05;100778.50;;;15.36;46.60
10176;BME280;18221;38.704;0.152;2023-02-13T11:24:35;100774.84;;;15.37;46.64
10176;BME280;18221;38.704;0.152;2023-02-13T11:27:09;100789.34;;;15.46;46.11
10176;BME280;18221;38.704;0.152;2023-02-13T11:29:53;100790.13;;;15.57;45.97
10176;BME280;18221;38.704;0.152;2023-02-13T11:32:23;100781.00;;;15.60;45.79
10176;BME280;18221;38.704;0.152;2023-02-13T11:34:54;100777.13;;;15.53;45.93
10176;BME280;18221;38.704;0.152;2023-02-13T11:37:28;100775.81;;;15.47;45.99
10176;BME280;18221;38.704;0.152;2023-02-13T11:39:59;100769.50;;;15.48;46.12
10176;BME280;18221;38.704;0.152;2023-02-13T11:42:31;100771.69;;;15.43;45.67
10176;BME280;18221;38.704;0.152;2023-02-13T11:45:05;100759.25;;;15.53;45.45
10176;BME280;18221;38.704;0.152;2023-02-13T11:47:38;100758.34;;;15.84;45.46
10176;BME280;18221;38.704;0.152;2023-02-13T11:50:22;100762.44;;;15.88;45.15
10176;BME280;18221;38.704;0.152;2023-02-13T11:52:59;100761.22;;;15.72;45.58
10176;BME280;18221;38.704;0.152;2023-02-13T11:55:32;100757.16;;;15.77;45.75
10176;BME280;18221;38.704;0.152;2023-02-13T11:58:04;100757.81;;;15.70;45.84
10176;BME280;18221;38.704;0.152;2023-02-13T12:00:48;100755.28;;;15.89;45.27
10176;BME280;18221;38.704;0.152;2023-02-13T12:03:27;100742.31;;;16.15;45.11
10176;BME280;18221;38.704;0.152;2023-02-13T12:06:10;100744.09;;;16.04;44.82
10176;BME280;18221;38.704;0.152;2023-02-13T12:08:42;100732.88;;;16.20;44.63
10176;BME280;18221;38.704;0.152;2023-02-13T12:11:23;100734.53;;;16.12;44.16
10176;BME280;18221;38.704;0.152;2023-02-13T12:13:52;100747.16;;;16.00;43.60
10176;BME280;18221;38.704;0.152;2023-02-13T12:16:34;100748.50;;;16.15;43.46
10176;BME280;18221;38.704;0.152;2023-02-13T12:19:11;100734.97;;;16.17;43.38
10176;BME280;18221;38.704;0.152;2023-02-13T12:22:14;100737.00;;;16.03;43.67
10176;BME280;18221;38.704;0.152;2023-02-13T12:25:36;100741.69;;;16.32;42.73
10176;BME280;18221;38.704;0.152;2023-02-13T12:28:12;100735.06;;;16.36;42.96
10176;BME280;18221;38.704;0.152;2023-02-13T12:31:28;100728.16;;;16.43;42.86
10176;BME280;18221;38.704;0.152;2023-02-13T12:34:58;100721.25;;;16.40;42.57
10176;BME280;18221;38.704;0.152;2023-02-13T12:37:51;100714.94;;;16.51;42.82
10176;BME280;18221;38.704;0.152;2023-02-13T12:41:08;100710.84;;;16.87;42.18
10176;BME280;18221;38.704;0.152;2023-02-13T12:44:38;100714.38;;;17.45;40.88
10176;BME280;18221;38.704;0.152;2023-02-13T12:47:17;100711.31;;;17.20;40.67
10176;BME280;18221;38.704;0.152;2023-02-13T12:50:29;100705.91;;;16.92;41.31
10176;BME280;18221;38.704;0.152;2023-02-13T12:53:22;100700.66;;;17.00;41.51
10176;BME280;18221;38.704;0.152;2023-02-13T12:56:19;100691.50;;;17.02;41.27
10176;BME280;18221;38.704;0.152;2023-02-13T12:59:00;100689.38;;;17.15;40.54
10176;BME280;18221;38.704;0.152;2023-02-13T13:02:08;100689.38;;;17.35;40.48
10176;BME280;18221;38.704;0.152;2023-02-13T13:05:02;100683.44;;;17.41;40.13
10176;BME280;18221;38.704;0.152;2023-02-13T13:07:59;100679.06;;;17.40;40.66
10176;BME280;18221;38.704;0.152;2023-02-13T13:10:59;100683.59;;;17.49;40.34
10176;BME280;18221;38.704;0.152;2023-02-13T13:13:49;100693.78;;;17.36;40.05
10176;BME280;18221;38.704;0.152;2023-02-13T13:16:29;100690.66;;;17.21;40.84
10176;BME280;18221;38.704;0.152;2023-02-13T13:19:11;100691.22;;;17.24;40.11
10176;BME280;18221;38.704;0.152;2023-02-13T13:21:48;100678.50;;;17.36;39.78
10176;BME280;18221;38.704;0.152;2023-02-13T13:24:43;100679.22;;;17.19;40.65
10176;BME280;18221;38.704;0.152;2023-02-13T13:27:22;100672.56;;;17.33;40.02
10176;BME280;18221;38.704;0.152;2023-02-13T13:29:57;100675.94;;;17.44;39.76
10176;BME280;18221;38.704;0.152;2023-02-13T13:32:27;100671.69;;;17.42;39.32
10176;BME280;18221;38.704;0.152;2023-02-13T13:34:57;100661.09;;;17.69;39.09
10176;BME280;18221;38.704;0.152;2023-02-13T13:37:31;100659.56;;;17.38;39.53